Аэропорт: Брест-2. Брест

ICAO: UMBB

METAR:
2018/05/20 13:00
UMBB 201300Z 03004G07MPS 9999 SCT020 19/02 Q1023 NOSIG
METAR:
2018/01/28 15:00
TAF UMBB 281405Z 2815/2824 26005G10MPS 4000 BR BKN007 BKN015CB 
      TEMPO 2815/2823 29007G12MPS 2000 SHRA BR BKN005